Helenville, WI (53137)

9:57 PM CDT on August 26, 2016 (GMT -0500)
Farmington | | Change Station

Elev 863 ft 43.10 °N, 88.69 °W | Updated 7 minutes ago

Overcast
Overcast
66.0 °F
Feels Like 66.0 °F
N
0.0
Wind Variable Wind from ESE

Today
High -- | Low -- °F
--% Chance of Precip.
Yesterday
High -- | Low -- °F
Precip. -- in
Pressure 30.16 in
Visibility 10.0 miles
Clouds Overcast 9000 ft
Dew Point 61 °F
Humidity 83%
Rainfall 0.00 in
Snow Depth Not available.
6:13 AM 7:38 PM
Waning Crescent, 29% visible
METAR KRYV 270235Z AUTO 06005KT 10SM OVC090 19/16 A3016 RMK AO2 T01910160
Pressure 30.16 in
Visibility 10.0 miles
Clouds Overcast 9000 ft
Dew Point 61 °F
Humidity 83%
Rainfall 0.00 in
Snow Depth Not available.
6:13 AM 7:38 PM
Waning Crescent, 29% visible
METAR KRYV 270235Z AUTO 06005KT 10SM OVC090 19/16 A3016 RMK AO2 T01910160

10-Day Weather Forecast

Almanac

Astronomy

Aug. 26, 2016 Rise Set
Actual Time
Civil Twilight
Nautical Twilight
Astronomical Twilight
Moon
Length of Visible Light
Length of Day
Tomorrow will be .
, % of the Moon is Illuminated

Today's Extremes

State Highs State Lows

Community

WunderPhotos

Upload Photos

1,935,281 photos uploaded!

WunderBlog® & News

Nearby

Air Quality

  Air Quality AQ Index Pollutant
Not available.

Snow Depth

Station Depth Elevation

Earthquake Activity

City Distance Mag. Time & Date
Minimum magnitude displayed is 2.5.

Coastal Water Temperatures

Place Temperature

Stations

Nearby Weather Stations

Station Location Temp. Windchill Dew Point Humidity Wind Precip. Elev Updated Type
                   

Watches & Warnings

There are currently no watches in effect.